Flight Track Log - Related Links

Times and Time Zones

All times are in EDT time to prevent confusion due to time zone crossing. See the AAL1326 flight status page for this flight to view local times or setup timezone preferences in your user account.

Time Position Orientation Groundspeed Altitude Reporting Facility
EDT Latitude Longitude Course Direction KTS MPH feet Rate Location/Type
Sat 07:32:26 PM 41.9667 -87.8667 180° South 162 186 2,300  Level Chicago TRACON
Sat 07:33:20 PM 41.9333 -87.8333 143° Southeast 228 262 3,500 2,335 Climbing Chicago TRACON
Sat 07:34:00 PM 41.6588 -87.7118 166° South  Level Estimated
Sat 07:35:00 PM 41.5511 -87.6473 167° South  Level Estimated
Sat 07:35:49 PM 41.7683 -87.8219 177° South 261 300 10,200  Level Chicago Center
Sat 07:36:00 PM 41.4434 -87.5830 180° South  Level Estimated
Sat 07:36:50 PM 41.6742 -87.7953 168° South 284 327 13,300  Level Chicago Center
Sat 07:37:00 PM 41.3356 -87.5189 180° South  Level Estimated
Sat 07:37:52 PM 41.5769 -87.7672 168° South 354 407 15,500  Level Chicago Center
Sat 07:38:53 PM 41.4747 -87.7403 169° South 368 423 18,700 3,000 Climbing Chicago Center
Sat 07:39:54 PM 41.3689 -87.7222 173° South 379 436 21,600 2,537 Climbing Chicago Center
Sat 07:40:56 PM 41.2564 -87.7217 180° South 398 458 23,900 2,049 Climbing Chicago Center
Sat 07:41:57 PM 41.1378 -87.7194 179° South 419 482 25,800 1,951 Climbing Chicago Center
Sat 07:42:59 PM 41.0217 -87.6794 165° South 437 503 27,900 2,000 Climbing Chicago Center
Sat 07:44:00 PM 40.9092 -87.6272 161° South 431 496 29,900 1,951 Climbing Chicago Center
Sat 07:45:02 PM 40.7983 -87.5764 161° South 425 489 31,900 1,902 Climbing Chicago Center
Sat 07:46:03 PM 40.6639 -87.5175 162° South 426 490 33,800 2,066 Climbing Chicago Center
Sat 07:47:04 PM 40.5553 -87.4661 160° South 419 482 36,100 1,902 Climbing Chicago Center
Sat 07:48:06 PM 40.4461 -87.4217 163° South 402 463 37,700 1,122 Climbing Chicago Center
Sat 07:49:07 PM 40.3425 -87.3681 158° South 401 461 38,400 780 Climbing Chicago Center
Sat 07:50:09 PM 40.2319 -87.3217 162° South 414 476 39,300 900 Climbing Chicago Center
Sat 07:51:07 PM 40.1208 -87.2756 162° South 414 476 40,200 756 Climbing Indianapolis Center
Sat 07:52:08 PM 40.0125 -87.2258 161° South 415 478 40,800 393 Climbing Indianapolis Center
Sat 07:53:09 PM 39.9042 -87.1731 160° South 418 481 41,000 98 Climbing Indianapolis Center
Sat 07:54:11 PM 39.7950 -87.1214 160° South 420 483 41,000  Level Indianapolis Center
Sat 07:55:12 PM 39.6847 -87.0689 160° South 423 487 41,000  Level Indianapolis Center
Sat 07:56:13 PM 39.5747 -87.0161 160° South 425 489 41,000  Level Indianapolis Center
Sat 07:57:14 PM 39.4425 -86.9550 160° South 424 488 41,000  Level Indianapolis Center
Sat 07:58:15 PM 39.3322 -86.9031 160° South 425 489 41,000  Level Indianapolis Center
Sat 07:59:17 PM 39.2214 -86.8511 160° South 426 490 41,000  Level Indianapolis Center
Sat 08:00:18 PM 39.1056 -86.7975 160° South 428 493 41,000  Level Indianapolis Center
Sat 08:01:19 PM 38.9925 -86.7444 160° South 429 494 41,000  Level Indianapolis Center
Sat 08:02:20 PM 38.8789 -86.6922 160° South 430 495 41,000  Level Indianapolis Center
Sat 08:03:22 PM 38.7653 -86.6383 160° South 430 495 41,000  Level Indianapolis Center
Sat 08:04:23 PM 38.6531 -86.5872 160° South 425 489 41,000  Level Indianapolis Center
Sat 08:05:24 PM 38.5406 -86.5367 161° South 423 487 41,000  Level Indianapolis Center
Sat 08:06:25 PM 38.4286 -86.4856 160° South 423 487 41,000  Level Indianapolis Center
Sat 08:07:27 PM 38.3169 -86.4331 160° South 422 486 41,000  Level Indianapolis Center
Sat 08:08:28 PM 38.2042 -86.3828 161° South 423 487 41,000  Level Indianapolis Center
Sat 08:09:29 PM 38.0911 -86.3306 160° South 427 491 41,000  Level Indianapolis Center
Sat 08:10:30 PM 37.9775 -86.2792 160° South 430 495 41,000  Level Indianapolis Center
Sat 08:11:31 PM 37.8633 -86.2292 161° South 430 495 41,000  Level Indianapolis Center
Sat 08:12:33 PM 37.7486 -86.1775 160° South 434 499 41,000  Level Indianapolis Center
Sat 08:13:34 PM 37.6325 -86.1275 161° South 438 504 41,000  Level Indianapolis Center
Sat 08:14:35 PM 37.4975 -86.0672 160° South 435 501 41,000  Level Indianapolis Center
Sat 08:15:36 PM 37.3789 -86.0147 161° South 443 510 41,000  Level Indianapolis Center
Sat 08:16:37 PM 37.2606 -85.9619 160° South 447 514 41,000  Level Indianapolis Center
Sat 08:17:39 PM 37.1431 -85.9092 160° South 444 511 41,000  Level Indianapolis Center
Sat 08:17:56 PM 37.1078 -85.8961 164° South 453 521 41,000  Level Memphis Center
Sat 08:18:56 PM 37.0019 -85.8500 161° South 448 516 41,000  Level Memphis Center
Sat 08:19:56 PM 36.8875 -85.7969 160° South 443 510 41,000  Level Memphis Center
Sat 08:20:56 PM 36.7733 -85.7464 160° South 443 510 41,000  Level Memphis Center
Sat 08:21:56 PM 36.6589 -85.6986 161° South 443 510 41,000  Level Memphis Center
Sat 08:22:56 PM 36.5444 -85.6483 161° South 443 510 41,000  Level Memphis Center
Sat 08:23:46 PM 36.4517 -85.6083 161° South 431 496 41,000  Level Indianapolis Center
Sat 08:24:47 PM 36.3431 -85.5608 161° South 418 481 41,000  Level Indianapolis Center
Sat 08:25:48 PM 36.2339 -85.5144 161° South 416 479 41,000  Level Indianapolis Center
Sat 08:26:49 PM 36.1253 -85.4683 161° South 416 479 41,000  Level Indianapolis Center
Sat 08:27:34 PM 36.0378 -85.4356 163° South 420 483 41,000  Level Atlanta Center
Sat 08:28:34 PM 35.9278 -85.3875 161° South 420 483 41,000  Level Atlanta Center
Sat 08:29:34 PM 35.8200 -85.3422 161° South 420 483 41,000  Level Atlanta Center
Sat 08:30:34 PM 35.7078 -85.2944 161° South 420 483 41,000  Level Atlanta Center
Sat 08:31:34 PM 35.5975 -85.2494 162° South 420 483 41,000  Level Atlanta Center
Sat 08:32:34 PM 35.4853 -85.2017 161° South 420 483 41,000  Level Atlanta Center
Sat 08:33:34 PM 35.3772 -85.1544 160° South 420 483 41,000  Level Atlanta Center
Sat 08:34:34 PM 35.2672 -85.1097 162° South 420 483 41,000  Level Atlanta Center
Sat 08:35:34 PM 35.1592 -85.0625 160° South 420 483 41,000  Level Atlanta Center
Sat 08:36:34 PM 35.0508 -85.0181 161° South 420 483 41,000  Level Atlanta Center
Sat 08:37:34 PM 34.9447 -84.9739 161° South 415 478 41,000  Level Atlanta Center
Sat 08:38:34 PM 34.8347 -84.9269 161° South 415 478 41,000  Level Atlanta Center
Sat 08:39:34 PM 34.7242 -84.8828 162° South 420 483 41,000  Level Atlanta Center
Sat 08:40:34 PM 34.6078 -84.8311 160° South 414 476 41,000  Level Atlanta Center
Sat 08:41:34 PM 34.4953 -84.7872 162° South 414 476 41,000  Level Atlanta Center
Sat 08:42:34 PM 34.3850 -84.7411 161° South 420 483 41,000  Level Atlanta Center
Sat 08:43:34 PM 34.2725 -84.6950 161° South 426 490 41,000  Level Atlanta Center
Sat 08:44:34 PM 34.1581 -84.6514 162° South 421 484 41,000  Level Atlanta Center
Sat 08:45:34 PM 34.0497 -84.6106 163° South 438 504 41,000  Level Atlanta Center
Sat 08:46:34 PM 33.9350 -84.5597 160° South 443 510 41,000  Level Atlanta Center
Sat 08:47:34 PM 33.8017 -84.5089 162° South 443 510 41,000  Level Atlanta Center
Sat 08:48:34 PM 33.6872 -84.4608 161° South 443 510 41,000  Level Atlanta Center
Sat 08:49:34 PM 33.5683 -84.4128 161° South 443 510 41,000  Level Atlanta Center
Sat 08:50:34 PM 33.4536 -84.3650 161° South 443 510 41,000  Level Atlanta Center
Sat 08:51:34 PM 33.3347 -84.3147 161° South 443 510 41,000  Level Atlanta Center
Sat 08:52:34 PM 33.2181 -84.2647 160° South 443 510 41,000  Level Atlanta Center
Sat 08:53:34 PM 33.0992 -84.2125 160° South 443 510 41,000  Level Atlanta Center
Sat 08:54:34 PM 32.9928 -84.1700 161° South 450 518 41,000  Level Atlanta Center
Sat 08:55:34 PM 32.8717 -84.1228 162° South 450 518 41,000  Level Atlanta Center
Sat 08:56:34 PM 32.7506 -84.0686 159° South 450 518 41,000  Level Atlanta Center
Sat 08:57:34 PM 32.6294 -84.0242 163° South 455 524 41,000  Level Atlanta Center
Sat 08:59:43 PM 32.3711 -83.9158 160° South 474 545 41,000  Level Jacksonville Center
Sat 09:00:43 PM 32.2525 -83.8678 161° South 462 532 41,000  Level Jacksonville Center
Sat 09:01:43 PM 32.1361 -83.8200 161° South 457 526 41,000  Level Jacksonville Center
Sat 09:02:43 PM 32.0194 -83.7722 161° South 446 513 41,000  Level Jacksonville Center
Sat 09:03:43 PM 31.8944 -83.7222 161° South 439 505 41,000  Level Jacksonville Center
Sat 09:04:43 PM 31.7800 -83.6722 160° South 439 505 41,000  Level Jacksonville Center
Sat 09:05:43 PM 31.6656 -83.6247 161° South 439 505 41,000  Level Jacksonville Center
Sat 09:06:43 PM 31.5403 -83.5825 164° South 449 517 41,000  Level Jacksonville Center
Sat 09:07:43 PM 31.4236 -83.5475 166° South 449 517 41,000  Level Jacksonville Center
Sat 09:08:43 PM 31.3069 -83.5125 166° South 439 505 41,000  Level Jacksonville Center
Sat 09:09:43 PM 31.1861 -83.4731 164° South 439 505 41,000  Level Jacksonville Center
Sat 09:10:43 PM 31.0817 -83.4433 166° South 439 505 41,000  Level Jacksonville Center
Sat 09:11:43 PM 30.9628 -83.4061 165° South 439 505 41,000  Level Jacksonville Center
Sat 09:12:43 PM 30.8419 -83.3669 164° South 439 505 41,000 -50 Level Jacksonville Center
Sat 09:13:43 PM 30.7167 -83.3300 166° South 429 494 40,900 -50 Descending Jacksonville Center
Sat 09:14:43 PM 30.5958 -83.2908 164° South 434 499 40,900 50 Level Jacksonville Center
Sat 09:15:44 PM 30.4789 -83.2567 166° South 434 499 41,000  Climbing Jacksonville Center
Sat 09:16:43 PM 30.3600 -83.2200 165° South 434 499 40,900  Descending Jacksonville Center
Sat 09:17:43 PM 30.2411 -83.1858 166° South 434 499 41,000 50 Climbing Jacksonville Center
Sat 09:18:43 PM 30.1181 -83.1494 166° South 434 499 41,000  Level Jacksonville Center
Sat 09:19:43 PM 29.9928 -83.1108 165° South 442 509 41,000  Level Jacksonville Center
Sat 09:20:43 PM 29.8717 -83.0769 166° South 454 522 41,000  Level Jacksonville Center
Sat 09:21:43 PM 29.7486 -83.0386 165° South 454 522 41,000 -50 Level Jacksonville Center
Sat 09:22:43 PM 29.6233 -83.0025 166° South 454 522 40,900  Descending Jacksonville Center
Sat 09:23:43 PM 29.4983 -82.9642 165° South 470 541 41,000 50 Climbing Jacksonville Center
Sat 09:24:43 PM 29.3814 -82.9283 165° South 470 541 41,000  Level Jacksonville Center
Sat 09:25:43 PM 29.2539 -82.8903 165° South 470 541 41,000  Level Jacksonville Center
Sat 09:26:43 PM 29.1286 -82.8522 165° South 470 541 41,000  Level Jacksonville Center
Sat 09:27:43 PM 29.0014 -82.8167 166° South 470 541 41,000 -50 Level Jacksonville Center
Sat 09:28:43 PM 28.8719 -82.7789 166° South 470 541 40,900  Descending Jacksonville Center
Sat 09:29:43 PM 28.7489 -82.7411 165° South 470 541 41,000  Climbing Jacksonville Center
Sat 09:30:43 PM 28.6214 -82.7058 166° South 470 541 40,900  Descending Jacksonville Center
Sat 09:31:43 PM 28.4961 -82.6681 165° South 470 541 41,000 50 Climbing Jacksonville Center
Sat 09:32:43 PM 28.3689 -82.6331 166° South 470 541 41,000  Level Jacksonville Center
Sat 09:33:43 PM 28.2436 -82.5956 165° South 470 541 41,000  Level Jacksonville Center
Sat 09:35:57 PM 27.9558 -82.5117 166° South 467 537 41,000  Level Miami Center
Sat 09:36:58 PM 27.8303 -82.4681 163° South 475 547 41,000 -298 Level Miami Center
Sat 09:37:58 PM 27.6967 -82.4169 161° South 470 541 40,400 -793 Descending Miami Center
Sat 09:38:59 PM 27.5836 -82.3717 160° South 475 547 39,400 -934 Descending Miami Center
Sat 09:40:00 PM 27.4558 -82.3281 163° South 475 547 38,500 -966 Descending Miami Center
Sat 09:40:57 PM 27.3139 -82.2744 161° South 475 547 37,500 -1,017 Descending Miami Center
Sat 09:41:58 PM 27.1881 -82.2314 163° South 475 547 36,500 -942 Descending Miami Center
Sat 09:42:58 PM 27.0606 -82.1833 161° South 475 547 35,600 -942 Descending Miami Center
Sat 09:43:59 PM 26.9306 -82.1403 164° South 479 551 34,600 -1,426 Descending Miami Center
Sat 09:45:00 PM 26.8056 -82.0764 155° Southeast 486 559 32,700 -2,471 Descending Miami Center
Sat 09:45:58 PM 26.7183 -81.9469 127° Southeast 492 566 29,700 -2,650 Descending Miami Center
Sat 09:47:00 PM 26.6394 -81.8181 124° Southeast 485 558 27,400 -2,350 Descending Miami Center
Sat 09:47:58 PM 26.5661 -81.6989 125° Southeast 485 558 25,000 -2,593 Descending Miami Center
Sat 09:48:58 PM 26.5108 -81.5992 122° Southeast 454 522 22,300 -2,850 Descending Miami Center
Sat 09:49:58 PM 26.4333 -81.4825 127° Southeast 430 495 19,300 -2,754 Descending Miami Center
Sat 09:51:00 PM 26.3694 -81.3828 126° Southeast 410 472 16,700 -2,450 Descending Miami Center
Sat 09:51:58 PM 26.3078 -81.2853 125° Southeast 397 457 14,400 -2,250 Descending Miami Center
Sat 09:53:00 PM 26.2500 -81.1931 125° Southeast 379 436 12,200 -2,200 Descending Miami Center
Sat 09:53:58 PM 26.1922 -81.1028 125° Southeast 367 422 10,000 -1,752 Descending Miami Center
Sat 09:54:53 PM 26.1458 -81.0386 129° Southeast 303 349 8,900 -1,096 Descending Miami Center
Sat 09:55:53 PM 26.1003 -80.9539 121° Southeast 299 344 7,900 -1,039 Descending Miami Center
Sat 09:57:00 PM 26.0967 -80.8544 92° East 288 331 6,700 -850 Descending Miami Center
Sat 09:58:00 PM 26.0908 -80.7661 94° East 288 331 6,100 -353 Descending Miami Center
Sat 09:58:59 PM 26.0972 -80.6856 85° East 275 316 6,000 -50 Descending Miami Center
Sat 10:00:00 PM 26.1056 -80.6047 83° East 270 311 6,000  Level Miami Center
Sat 10:00:51 PM 26.1092 -80.5378 87° East 267 307 6,000  Level Miami Center
Sat 10:01:52 PM 26.1175 -80.4547 84° East 268 308 6,000  Level Miami Center
Sat 10:02:52 PM 26.1258 -80.3742 83° East 268 308 6,000  Level Miami Center
Sat 10:03:53 PM 26.1339 -80.2933 84° East 259 298 6,000 -545 Level Miami Center
Sat 10:04:53 PM 26.1400 -80.2194 85° East 227 261 4,900 -1,030 Descending Miami Center
Sat 10:06:07 PM 26.1503 -80.1294 83° East 237 273 3,700 -938 Descending Miami Center
Sat 10:07:01 PM 26.1497 -80.0647 91° East 230 265 2,900 -887 Descending Miami Center
Sat 10:08:02 PM 26.1172 -80.0128 125° Southeast 222 255 2,000 -558 Descending Miami Center
Sat 10:09:10 PM 26.0750 -80.0442 214° Southwest 157 181 1,700 -265 Descending Miami Center

Login

Don't have an account? Register now (free) for customized features, flight alerts, and more!